Time;durP1;ratioP1;P1;durP2;ratioP2;P2;SDS_P1;SDS_P2;PMS_P1;PMS_P2;Temp;Humidity;BMP_temperature;BMP_pressure;BME280_temperature;BME280_humidity;BME280_pressure;Samples;Min_cycle;Max_cycle;Signal;HPM_P1;HPM_P2
2023/05/10 00:00:24;;;;;;;;;;;;;;;;;;4956026;28;20352;-65
2023/05/10 00:02:52;;;;;;;;;;;;;;;;;;4931075;28;19938;-66
2023/05/10 00:05:20;;;;;;;;;;;;;;;;;;4931283;28;20151;-66
2023/05/10 00:07:45;;;;;;;;;;;;;;;;;;4945475;28;19933;-66
2023/05/10 00:10:11;;;;;;;;;;;;;;;;;;4932191;28;19922;-67
2023/05/10 00:12:36;;;;;;;;;;;;;;;;;;4940470;28;20049;-65
2023/05/10 00:15:01;;;;;;;;;;;;;;;;;;4957053;28;19980;-67
2023/05/10 00:17:26;;;;;;;;;;;;;;;;;;4953930;28;19923;-68
2023/05/10 00:19:52;;;;;;;;;;;;;;;;;;4939257;28;19933;-67
2023/05/10 00:22:17;;;;;;;;;;;;;;;;;;4928151;28;19925;-67
2023/05/10 00:24:42;;;;;;;;;;;;;;;;;;4940026;28;19968;-67
2023/05/10 00:27:10;;;;;;;;;;;;;;;;;;4930688;28;19940;-66
2023/05/10 00:29:36;;;;;;;;;;;;;;;;;;4944925;28;20358;-70
2023/05/10 00:32:04;;;;;;;;;;;;;;;;;;4944452;28;19922;-66
2023/05/10 00:34:32;;;;;;;;;;;;;;;;;;4945020;28;20064;-67
2023/05/10 00:36:57;;;;;;;;;;;;;;;;;;4924832;28;19926;-66
2023/05/10 00:39:23;;;;;;;;;;;;;;;;;;4944020;28;21800;-67
2023/05/10 00:41:48;;;;;;;;;;;;;;;;;;4957559;28;20353;-67
2023/05/10 00:44:16;;;;;;;;;;;;;;;;;;4955785;28;19918;-69
2023/05/10 00:46:41;;;;;;;;;;;;;;;;;;4940689;28;19921;-67
2023/05/10 00:49:06;;;;;;;;;;;;;;;;;;4928961;28;19926;-65
2023/05/10 00:51:32;;;;;;;;;;;;;;;;;;4955720;28;20432;-66
2023/05/10 00:53:57;;;;;;;;;;;;;;;;;;4958687;28;19929;-67
2023/05/10 00:56:25;;;;;;;;;;;;;;;;;;4946601;28;19917;-67
2023/05/10 00:58:50;;;;;;;;;;;;;;;;;;4944319;28;19918;-65
2023/05/10 01:01:16;;;;;;;;;;;;;;;;;;4935029;28;19926;-67
2023/05/10 01:03:41;;;;;;;;;;;;;;;;;;4956372;28;19961;-66
2023/05/10 01:06:09;;;;;;;;;;;;;;;;;;4957422;28;20061;-65
2023/05/10 01:08:35;;;;;;;;;;;;;;;;;;4956897;28;19917;-66
2023/05/10 01:11:03;;;;;;;;;;;;;;;;;;4938986;28;20194;-64
2023/05/10 01:13:28;;;;;;;;;;;;;;;;;;4942277;28;20385;-65
2023/05/10 01:15:56;;;;;;;;;;;;;;;;;;4956463;28;19960;-64
2023/05/10 01:18:21;;;;;;;;;;;;;;;;;;4940096;28;20378;-64
2023/05/10 01:20:47;;;;;;;;;;;;;;;;;;4931335;28;19937;-66
2023/05/10 01:23:15;;;;;;;;;;;;;;;;;;4955937;28;19980;-66
2023/05/10 01:25:44;;;;;;;;;;;;;;;;;;4944499;28;19984;-66
2023/05/10 01:28:09;;;;;;;;;;;;;;;;;;4938882;28;20362;-65
2023/05/10 01:30:36;;;;;;;;;;;;;;;;;;4940092;28;19918;-66
2023/05/10 01:33:02;;;;;;;;;;;;;;;;;;4939096;28;20265;-65
2023/05/10 01:35:32;;;;;;;;;;;;;;;;;;4932226;28;19922;-66
2023/05/10 01:37:57;;;;;;;;;;;;;;;;;;4939025;28;19918;-66
2023/05/10 01:40:22;;;;;;;;;;;;;;;;;;4943190;28;19932;-64
2023/05/10 01:42:51;;;;;;;;;;;;;;;;;;4929624;28;19950;-67
2023/05/10 01:45:18;;;;;;;;;;;;;;;;;;4926995;28;19921;-66
2023/05/10 01:47:44;;;;;;;;;;;;;;;;;;4930452;28;20177;-68
2023/05/10 01:50:09;;;;;;;;;;;;;;;;;;4927879;28;20036;-66
2023/05/10 01:52:35;;;;;;;;;;;;;;;;;;4943819;28;19922;-64
2023/05/10 01:55:02;;;;;;;;;;;;;;;;;;4942884;28;20135;-66
2023/05/10 01:57:28;;;;;;;;;;;;;;;;;;4940150;28;20472;-65
2023/05/10 01:59:53;;;;;;;;;;;;;;;;;;4942000;28;20760;-66
2023/05/10 02:02:18;;;;;;;;;;;;;;;;;;4935524;28;19925;-65
2023/05/10 02:04:46;;;;;;;;;;;;;;;;;;4953389;28;19922;-66
2023/05/10 02:07:11;;;;;;;;;;;;;;;;;;4928868;28;19922;-66
2023/05/10 02:09:37;;;;;;;;;;;;;;;;;;4937783;28;19925;-65
2023/05/10 02:12:02;;;;;;;;;;;;;;;;;;4943667;28;20071;-67
2023/05/10 02:14:28;;;;;;;;;;;;;;;;;;4950200;28;19925;-64
2023/05/10 02:16:53;;;;;;;;;;;;;;;;;;4929992;28;19961;-66
2023/05/10 02:19:18;;;;;;;;;;;;;;;;;;4938909;28;19929;-65
2023/05/10 02:21:44;;;;;;;;;;;;;;;;;;4940108;28;20436;-64
2023/05/10 02:24:11;;;;;;;;;;;;;;;;;;4926545;28;20103;-64
2023/05/10 02:26:37;;;;;;;;;;;;;;;;;;4938981;28;19922;-64
2023/05/10 02:29:03;;;;;;;;;;;;;;;;;;4927457;28;19933;-67
2023/05/10 02:31:30;;;;;;;;;;;;;;;;;;4931022;28;20589;-64
2023/05/10 02:33:58;;;;;;;;;;;;;;;;;;4938607;28;19921;-64
2023/05/10 02:36:24;;;;;;;;;;;;;;;;;;4943345;28;20258;-66
2023/05/10 02:38:49;;;;;;;;;;;;;;;;;;4940432;28;19926;-64
2023/05/10 02:41:14;;;;;;;;;;;;;;;;;;4929996;28;20432;-65
2023/05/10 02:43:42;;;;;;;;;;;;;;;;;;4939663;28;19941;-66
2023/05/10 02:46:10;;;;;;;;;;;;;;;;;;4955575;28;19957;-67
2023/05/10 02:48:35;;;;;;;;;;;;;;;;;;4939136;28;20004;-65
2023/05/10 02:51:00;;;;;;;;;;;;;;;;;;4926390;28;20381;-65
2023/05/10 02:53:26;;;;;;;;;;;;;;;;;;4956632;28;19922;-65
2023/05/10 02:55:51;;;;;;;;;;;;;;;;;;4938879;28;19918;-65
2023/05/10 02:58:19;;;;;;;;;;;;;;;;;;4929375;28;20138;-66
2023/05/10 03:00:46;;;;;;;;;;;;;;;;;;4942524;28;20133;-67
2023/05/10 03:03:11;;;;;;;;;;;;;;;;;;4937988;28;20337;-66
2023/05/10 03:05:37;;;;;;;;;;;;;;;;;;4940339;28;19918;-65
2023/05/10 03:08:05;;;;;;;;;;;;;;;;;;4936623;28;19926;-66
2023/05/10 03:10:31;;;;;;;;;;;;;;;;;;4929136;28;19922;-66
2023/05/10 03:12:56;;;;;;;;;;;;;;;;;;4925525;28;19933;-65
2023/05/10 03:15:21;;;;;;;;;;;;;;;;;;4941944;28;19928;-64
2023/05/10 03:17:47;;;;;;;;;;;;;;;;;;4937274;28;19922;-65
2023/05/10 03:20:12;;;;;;;;;;;;;;;;;;4955203;28;19981;-65
2023/05/10 03:22:37;;;;;;;;;;;;;;;;;;4931593;28;19972;-64
2023/05/10 03:25:06;;;;;;;;;;;;;;;;;;4931591;28;19977;-65
2023/05/10 03:27:31;;;;;;;;;;;;;;;;;;4958046;28;20305;-65
2023/05/10 03:29:56;;;;;;;;;;;;;;;;;;4947690;28;19933;-65
2023/05/10 03:32:21;;;;;;;;;;;;;;;;;;4955383;28;20458;-64
2023/05/10 03:34:47;;;;;;;;;;;;;;;;;;4954831;28;19929;-65
2023/05/10 03:37:12;;;;;;;;;;;;;;;;;;4931965;28;19929;-64
2023/05/10 03:39:40;;;;;;;;;;;;;;;;;;4958167;28;20533;-67
2023/05/10 03:42:11;;;;;;;;;;;;;;;;;;4944712;28;19929;-65
2023/05/10 03:44:37;;;;;;;;;;;;;;;;;;4947256;28;19922;-66
2023/05/10 03:47:02;;;;;;;;;;;;;;;;;;4946764;28;20073;-65
2023/05/10 03:49:27;;;;;;;;;;;;;;;;;;4945692;28;20052;-64
2023/05/10 03:51:53;;;;;;;;;;;;;;;;;;4945708;28;19929;-68
2023/05/10 03:54:18;;;;;;;;;;;;;;;;;;4946058;28;19922;-70
2023/05/10 03:56:43;;;;;;;;;;;;;;;;;;4932001;28;19922;-64
2023/05/10 03:59:09;;;;;;;;;;;;;;;;;;4959575;28;20400;-65
2023/05/10 04:01:34;;;;;;;;;;;;;;;;;;4939732;28;19926;-66
2023/05/10 04:03:59;;;;;;;;;;;;;;;;;;4959076;28;20205;-65
2023/05/10 04:06:25;;;;;;;;;;;;;;;;;;4929361;28;19928;-64
2023/05/10 04:08:50;;;;;;;;;;;;;;;;;;4959212;28;19918;-69
2023/05/10 04:11:15;;;;;;;;;;;;;;;;;;4939404;28;19937;-65
2023/05/10 04:13:42;;;;;;;;;;;;;;;;;;4939013;28;19929;-66
2023/05/10 04:16:12;;;;;;;;;;;;;;;;;;4956988;28;20388;-66
2023/05/10 04:18:37;;;;;;;;;;;;;;;;;;4928642;28;20673;-65
2023/05/10 04:21:03;;;;;;;;;;;;;;;;;;4931397;28;20009;-72
2023/05/10 04:23:28;;;;;;;;;;;;;;;;;;4928094;28;19922;-66
2023/05/10 04:25:53;;;;;;;;;;;;;;;;;;4957291;28;19918;-65
2023/05/10 04:28:19;;;;;;;;;;;;;;;;;;4944447;28;19994;-66
2023/05/10 04:30:46;;;;;;;;;;;;;;;;;;4940338;28;19918;-67
2023/05/10 04:33:14;;;;;;;;;;;;;;;;;;4955242;28;20009;-66
2023/05/10 04:35:40;;;;;;;;;;;;;;;;;;4930106;28;19936;-66
2023/05/10 04:38:05;;;;;;;;;;;;;;;;;;4943792;28;19922;-66
2023/05/10 04:40:30;;;;;;;;;;;;;;;;;;4957567;28;19937;-66
2023/05/10 04:42:56;;;;;;;;;;;;;;;;;;4953984;28;20630;-66
2023/05/10 04:45:21;;;;;;;;;;;;;;;;;;4930428;28;20328;-67
2023/05/10 04:47:46;;;;;;;;;;;;;;;;;;4953398;28;19925;-67
2023/05/10 04:50:14;;;;;;;;;;;;;;;;;;4952087;28;19949;-66
2023/05/10 04:52:39;;;;;;;;;;;;;;;;;;4942210;28;19953;-66
2023/05/10 04:55:07;;;;;;;;;;;;;;;;;;4949820;28;19922;-66
2023/05/10 04:57:32;;;;;;;;;;;;;;;;;;4955240;28;19940;-67
2023/05/10 04:59:58;;;;;;;;;;;;;;;;;;4955183;28;20476;-67
2023/05/10 05:02:23;;;;;;;;;;;;;;;;;;4939683;28;20579;-67
2023/05/10 05:04:49;;;;;;;;;;;;;;;;;;4946864;28;19991;-67
2023/05/10 05:07:17;;;;;;;;;;;;;;;;;;4945710;28;19918;-66
2023/05/10 05:09:42;;;;;;;;;;;;;;;;;;4937196;28;20936;-66
2023/05/10 05:12:08;;;;;;;;;;;;;;;;;;4945409;28;19992;-66
2023/05/10 05:14:33;;;;;;;;;;;;;;;;;;4958966;28;20871;-66
2023/05/10 05:17:01;;;;;;;;;;;;;;;;;;4945103;28;20272;-66
2023/05/10 05:19:27;;;;;;;;;;;;;;;;;;4934013;28;20423;-67
2023/05/10 05:21:55;;;;;;;;;;;;;;;;;;4940731;28;19925;-67
2023/05/10 05:24:21;;;;;;;;;;;;;;;;;;4963066;28;19917;-66
2023/05/10 05:26:49;;;;;;;;;;;;;;;;;;4961055;28;19917;-67
2023/05/10 05:29:14;;;;;;;;;;;;;;;;;;4935296;28;20441;-68
2023/05/10 05:31:44;;;;;;;;;;;;;;;;;;4938364;28;19924;-67
2023/05/10 05:34:10;;;;;;;;;;;;;;;;;;4950197;28;20305;-68
2023/05/10 05:36:35;;;;;;;;;;;;;;;;;;4963597;28;19922;-68
2023/05/10 05:39:01;;;;;;;;;;;;;;;;;;4962833;28;20020;-69
2023/05/10 05:41:26;;;;;;;;;;;;;;;;;;4961006;28;19930;-67
2023/05/10 05:43:54;;;;;;;;;;;;;;;;;;4943706;28;19922;-66
2023/05/10 05:46:19;;;;;;;;;;;;;;;;;;4937943;28;19952;-70
2023/05/10 05:48:45;;;;;;;;;;;;;;;;;;4938765;28;19922;-70
2023/05/10 05:51:11;;;;;;;;;;;;;;;;;;4942224;28;20394;-72
2023/05/10 05:53:36;;;;;;;;;;;;;;;;;;4937149;28;20148;-70
2023/05/10 05:56:07;;;;;;;;;;;;;;;;;;4953039;28;19922;-67
2023/05/10 05:58:33;;;;;;;;;;;;;;;;;;4949773;28;19969;-69
2023/05/10 06:00:58;;;;;;;;;;;;;;;;;;4965494;28;20009;-74
2023/05/10 06:03:24;;;;;;;;;;;;;;;;;;4961886;28;19930;-70
2023/05/10 06:05:50;;;;;;;;;;;;;;;;;;4947676;28;19918;-71
2023/05/10 06:08:15;;;;;;;;;;;;;;;;;;4939233;28;19922;-71
2023/05/10 06:10:41;;;;;;;;;;;;;;;;;;4937206;28;19918;-69
2023/05/10 06:13:09;;;;;;;;;;;;;;;;;;4961853;28;19922;-67
2023/05/10 06:15:35;;;;;;;;;;;;;;;;;;4952981;28;19918;-72
2023/05/10 06:18:00;;;;;;;;;;;;;;;;;;4947056;28;19976;-68
2023/05/10 06:20:26;;;;;;;;;;;;;;;;;;4939229;28;19958;-68
2023/05/10 06:22:52;;;;;;;;;;;;;;;;;;4953302;28;19976;-67
2023/05/10 06:28:12;;;;;;;;;;;;;;;;;;4946712;28;19924;-71
2023/05/10 06:30:38;;;;;;;;;;;;;;;;;;4935328;28;19922;-68
2023/05/10 06:33:04;;;;;;;;;;;;;;;;;;4954292;28;19922;-73
2023/05/10 06:35:29;;;;;;;;;;;;;;;;;;4937144;28;19922;-73
2023/05/10 06:37:55;;;;;;;;;;;;;;;;;;4952760;28;19929;-70
2023/05/10 06:40:20;;;;;;;;;;;;;;;;;;4949839;28;19922;-73
2023/05/10 06:42:46;;;;;;;;;;;;;;;;;;4940306;28;20196;-73
2023/05/10 06:45:12;;;;;;;;;;;;;;;;;;4964117;28;20383;-72
2023/05/10 06:47:38;;;;;;;;;;;;;;;;;;4953532;28;20559;-67
2023/05/10 06:50:03;;;;;;;;;;;;;;;;;;4950787;28;20045;-71
2023/05/10 06:52:29;;;;;;;;;;;;;;;;;;4964490;28;19918;-73
2023/05/10 06:54:54;;;;;;;;;;;;;;;;;;4959009;28;19922;-71
2023/05/10 06:57:20;;;;;;;;;;;;;;;;;;4967593;28;19924;-71
2023/05/10 06:59:45;;;;;;;;;;;;;;;;;;4955448;28;19929;-69
2023/05/10 07:02:11;;;;;;;;;;;;;;;;;;4968408;28;19926;-72
2023/05/10 07:04:37;;;;;;;;;;;;;;;;;;4955949;28;19964;-69
2023/05/10 07:07:02;;;;;;;;;;;;;;;;;;4965984;28;20020;-67
2023/05/10 07:09:28;;;;;;;;;;;;;;;;;;4939366;28;20381;-70
2023/05/10 07:11:54;;;;;;;;;;;;;;;;;;4953923;28;19922;-69
2023/05/10 07:14:19;;;;;;;;;;;;;;;;;;4939315;28;20735;-70
2023/05/10 07:16:45;;;;;;;;;;;;;;;;;;4950732;28;19943;-73
2023/05/10 07:19:11;;;;;;;;;;;;;;;;;;4942050;28;20259;-71
2023/05/10 07:21:42;;;;;;;;;;;;;;;;;;4950047;28;20040;-67
2023/05/10 07:24:09;;;;;;;;;;;;;;;;;;4963481;28;19918;-70
2023/05/10 07:26:35;;;;;;;;;;;;;;;;;;4933382;28;20385;-69
2023/05/10 07:29:02;;;;;;;;;;;;;;;;;;4936207;28;19922;-68
2023/05/10 07:31:30;;;;;;;;;;;;;;;;;;4936654;28;19972;-70
2023/05/10 07:33:56;;;;;;;;;;;;;;;;;;4965818;28;19917;-69
2023/05/10 07:36:21;;;;;;;;;;;;;;;;;;4938199;28;20005;-67
2023/05/10 07:38:47;;;;;;;;;;;;;;;;;;4935636;28;19933;-67
2023/05/10 07:41:12;;;;;;;;;;;;;;;;;;4948598;28;19933;-68
2023/05/10 07:43:38;;;;;;;;;;;;;;;;;;4946387;28;19937;-68
2023/05/10 07:46:03;;;;;;;;;;;;;;;;;;4949225;28;20032;-65
2023/05/10 07:48:29;;;;;;;;;;;;;;;;;;4962631;28;20289;-67
2023/05/10 07:50:54;;;;;;;;;;;;;;;;;;4960122;28;19921;-65
2023/05/10 07:53:21;;;;;;;;;;;;;;;;;;4931850;28;19917;-64
2023/05/10 07:55:46;;;;;;;;;;;;;;;;;;4932441;28;20721;-64
2023/05/10 07:58:12;;;;;;;;;;;;;;;;;;4933228;28;19918;-66
2023/05/10 08:00:43;;;;;;;;;;;;;;;;;;4949400;28;19968;-65
2023/05/10 08:03:09;;;;;;;;;;;;;;;;;;4958572;28;19929;-64
2023/05/10 08:05:35;;;;;;;;;;;;;;;;;;4931858;28;21190;-65
2023/05/10 08:08:00;;;;;;;;;;;;;;;;;;4958001;28;19918;-66
2023/05/10 08:10:25;;;;;;;;;;;;;;;;;;4932708;28;20135;-64
2023/05/10 08:12:51;;;;;;;;;;;;;;;;;;4945499;28;19922;-65
2023/05/10 08:15:16;;;;;;;;;;;;;;;;;;4931364;28;20436;-64
2023/05/10 08:17:42;;;;;;;;;;;;;;;;;;4942946;28;19941;-64
2023/05/10 08:20:16;;;;;;;;;;;;;;;;;;4947112;28;19922;-66
2023/05/10 08:22:42;;;;;;;;;;;;;;;;;;4943507;28;20037;-65
2023/05/10 08:25:10;;;;;;;;;;;;;;;;;;4957087;28;20428;-64
2023/05/10 08:27:36;;;;;;;;;;;;;;;;;;4929064;28;20443;-65
2023/05/10 08:30:01;;;;;;;;;;;;;;;;;;4944670;28;19917;-65
2023/05/10 08:32:32;;;;;;;;;;;;;;;;;;4959084;28;19919;-65
2023/05/10 08:34:58;;;;;;;;;;;;;;;;;;4946062;28;19922;-65
2023/05/10 08:37:23;;;;;;;;;;;;;;;;;;4932204;28;19922;-65
2023/05/10 08:39:48;;;;;;;;;;;;;;;;;;4958689;28;19929;-64
2023/05/10 08:42:14;;;;;;;;;;;;;;;;;;4959681;28;20205;-65
2023/05/10 08:44:39;;;;;;;;;;;;;;;;;;4947628;28;19922;-64
2023/05/10 08:47:05;;;;;;;;;;;;;;;;;;4961142;28;19918;-65
2023/05/10 08:49:30;;;;;;;;;;;;;;;;;;4946139;28;20385;-65
2023/05/10 08:51:56;;;;;;;;;;;;;;;;;;4941485;28;19933;-65
2023/05/10 08:54:21;;;;;;;;;;;;;;;;;;4959301;28;20342;-65
2023/05/10 08:56:46;;;;;;;;;;;;;;;;;;4938565;28;19925;-65
2023/05/10 08:59:13;;;;;;;;;;;;;;;;;;4948026;28;20437;-65
2023/05/10 09:01:39;;;;;;;;;;;;;;;;;;4960015;28;19918;-64
2023/05/10 09:04:04;;;;;;;;;;;;;;;;;;4947049;28;20302;-65
2023/05/10 09:06:29;;;;;;;;;;;;;;;;;;4940956;28;20013;-65
2023/05/10 09:08:55;;;;;;;;;;;;;;;;;;4947180;28;20462;-66
2023/05/10 09:11:22;;;;;;;;;;;;;;;;;;4945044;28;19922;-66
2023/05/10 09:13:48;;;;;;;;;;;;;;;;;;4957371;28;19918;-67
2023/05/10 09:16:13;;;;;;;;;;;;;;;;;;4946790;28;20856;-65
2023/05/10 09:18:38;;;;;;;;;;;;;;;;;;4930772;28;20016;-65
2023/05/10 09:21:04;;;;;;;;;;;;;;;;;;4959555;28;19918;-65
2023/05/10 09:23:32;;;;;;;;;;;;;;;;;;4952050;28;20017;-65
2023/05/10 09:25:59;;;;;;;;;;;;;;;;;;4932695;28;19937;-65
2023/05/10 09:28:25;;;;;;;;;;;;;;;;;;4928418;28;19922;-66
2023/05/10 09:30:50;;;;;;;;;;;;;;;;;;4959671;28;19997;-66
2023/05/10 09:33:18;;;;;;;;;;;;;;;;;;4955320;28;19922;-66
2023/05/10 09:35:43;;;;;;;;;;;;;;;;;;4957175;28;19976;-66
2023/05/10 09:38:10;;;;;;;;;;;;;;;;;;4945637;28;19918;-66
2023/05/10 09:40:35;;;;;;;;;;;;;;;;;;4953984;28;19922;-67
2023/05/10 09:43:00;;;;;;;;;;;;;;;;;;4956893;28;19933;-72
2023/05/10 09:45:26;;;;;;;;;;;;;;;;;;4944390;28;19922;-68
2023/05/10 09:47:51;;;;;;;;;;;;;;;;;;4930736;28;19989;-67
2023/05/10 09:50:17;;;;;;;;;;;;;;;;;;4945129;28;19918;-67
2023/05/10 09:52:43;;;;;;;;;;;;;;;;;;4946289;28;19966;-68
2023/05/10 09:55:08;;;;;;;;;;;;;;;;;;4937961;28;20168;-67
2023/05/10 09:57:33;;;;;;;;;;;;;;;;;;4931156;28;19925;-68
2023/05/10 09:59:59;;;;;;;;;;;;;;;;;;4927675;28;19922;-72
2023/05/10 10:02:24;;;;;;;;;;;;;;;;;;4937304;28;19933;-68
2023/05/10 10:04:50;;;;;;;;;;;;;;;;;;4955915;28;19922;-68
2023/05/10 10:07:16;;;;;;;;;;;;;;;;;;4952497;28;19984;-68
2023/05/10 10:09:41;;;;;;;;;;;;;;;;;;4943808;28;20009;-68
2023/05/10 10:12:06;;;;;;;;;;;;;;;;;;4931144;28;19937;-71
2023/05/10 10:14:35;;;;;;;;;;;;;;;;;;4945260;28;19925;-71
2023/05/10 10:17:00;;;;;;;;;;;;;;;;;;4956696;28;19922;-75
2023/05/10 10:19:26;;;;;;;;;;;;;;;;;;4945521;28;20362;-70
2023/05/10 10:21:51;;;;;;;;;;;;;;;;;;4931723;28;19926;-70
2023/05/10 10:24:17;;;;;;;;;;;;;;;;;;4957650;28;20187;-70
2023/05/10 10:26:47;;;;;;;;;;;;;;;;;;4945249;28;19917;-70
2023/05/10 10:29:15;;;;;;;;;;;;;;;;;;4940048;28;19980;-71
2023/05/10 10:31:43;;;;;;;;;;;;;;;;;;4951977;28;19922;-68
2023/05/10 10:34:13;;;;;;;;;;;;;;;;;;4956669;28;19921;-70
2023/05/10 10:36:39;;;;;;;;;;;;;;;;;;4956607;28;20007;-67
2023/05/10 10:39:04;;;;;;;;;;;;;;;;;;4945020;28;20389;-67
2023/05/10 10:41:30;;;;;;;;;;;;;;;;;;4956238;28;20251;-68
2023/05/10 10:43:55;;;;;;;;;;;;;;;;;;4956298;28;19961;-67
2023/05/10 10:46:21;;;;;;;;;;;;;;;;;;4941313;28;19969;-67
2023/05/10 10:48:46;;;;;;;;;;;;;;;;;;4949137;28;20673;-67
2023/05/10 10:51:12;;;;;;;;;;;;;;;;;;4941161;28;19918;-67
2023/05/10 10:53:39;;;;;;;;;;;;;;;;;;4955499;28;20398;-66
2023/05/10 10:56:06;;;;;;;;;;;;;;;;;;4955145;28;19940;-72
2023/05/10 10:58:34;;;;;;;;;;;;;;;;;;4955855;28;19918;-67
2023/05/10 11:01:00;;;;;;;;;;;;;;;;;;4939820;28;20338;-67
2023/05/10 11:03:25;;;;;;;;;;;;;;;;;;4950982;28;19929;-67
2023/05/10 11:05:52;;;;;;;;;;;;;;;;;;4937600;28;19922;-66
2023/05/10 11:08:21;;;;;;;;;;;;;;;;;;4955097;28;19976;-66
2023/05/10 11:10:51;;;;;;;;;;;;;;;;;;4928312;28;19965;-66
2023/05/10 11:13:20;;;;;;;;;;;;;;;;;;4928419;28;20365;-67
2023/05/10 11:15:45;;;;;;;;;;;;;;;;;;4954872;28;19997;-66
2023/05/10 11:18:13;;;;;;;;;;;;;;;;;;4927913;28;20004;-66
2023/05/10 11:20:39;;;;;;;;;;;;;;;;;;4938347;28;20523;-66
2023/05/10 11:23:04;;;;;;;;;;;;;;;;;;4929336;28;19964;-67
2023/05/10 11:25:30;;;;;;;;;;;;;;;;;;4927874;28;20731;-66
2023/05/10 11:27:55;;;;;;;;;;;;;;;;;;4928090;28;19922;-67
2023/05/10 11:30:23;;;;;;;;;;;;;;;;;;4936892;28;19925;-67
2023/05/10 11:32:51;;;;;;;;;;;;;;;;;;4955417;28;19921;-66
2023/05/10 11:35:16;;;;;;;;;;;;;;;;;;4954720;28;19996;-67
2023/05/10 11:37:45;;;;;;;;;;;;;;;;;;4928974;28;20474;-67
2023/05/10 11:40:10;;;;;;;;;;;;;;;;;;4927960;28;20030;-67
2023/05/10 11:42:35;;;;;;;;;;;;;;;;;;4946020;28;19957;-66
2023/05/10 11:45:00;;;;;;;;;;;;;;;;;;4940349;28;21639;-66
2023/05/10 11:47:28;;;;;;;;;;;;;;;;;;4960067;28;19921;-66
2023/05/10 11:49:53;;;;;;;;;;;;;;;;;;4946765;28;20009;-68
2023/05/10 11:52:18;;;;;;;;;;;;;;;;;;4945222;28;19961;-66
2023/05/10 11:54:44;;;;;;;;;;;;;;;;;;4949025;28;19926;-67
2023/05/10 11:57:09;;;;;;;;;;;;;;;;;;4939790;28;19922;-67
2023/05/10 11:59:34;;;;;;;;;;;;;;;;;;4950010;28;20036;-68
2023/05/10 12:02:00;;;;;;;;;;;;;;;;;;4929076;28;20427;-67
2023/05/10 12:04:37;;;;;;;;;;;;;;;;;;4959784;28;19930;-66
2023/05/10 12:07:03;;;;;;;;;;;;;;;;;;4944510;28;20029;-69
2023/05/10 12:09:28;;;;;;;;;;;;;;;;;;4939362;28;20471;-67
2023/05/10 12:11:59;;;;;;;;;;;;;;;;;;4959185;28;19929;-67
2023/05/10 12:14:24;;;;;;;;;;;;;;;;;;4928903;28;20366;-68
2023/05/10 12:16:50;;;;;;;;;;;;;;;;;;4932073;28;19932;-67
2023/05/10 12:19:15;;;;;;;;;;;;;;;;;;4940239;28;19952;-67
2023/05/10 12:21:41;;;;;;;;;;;;;;;;;;4953687;28;19925;-66
2023/05/10 12:24:06;;;;;;;;;;;;;;;;;;4943498;28;19928;-67
2023/05/10 12:26:32;;;;;;;;;;;;;;;;;;4944511;28;19917;-67
2023/05/10 12:28:57;;;;;;;;;;;;;;;;;;4945149;28;19925;-67
2023/05/10 12:31:22;;;;;;;;;;;;;;;;;;4928738;28;19951;-67
2023/05/10 12:33:49;;;;;;;;;;;;;;;;;;4949143;28;19922;-66
2023/05/10 12:36:14;;;;;;;;;;;;;;;;;;4938765;28;20357;-68
2023/05/10 12:38:40;;;;;;;;;;;;;;;;;;4944397;28;20009;-67
2023/05/10 12:41:07;;;;;;;;;;;;;;;;;;4940964;28;21759;-67
2023/05/10 12:43:36;;;;;;;;;;;;;;;;;;4944118;28;20115;-68
2023/05/10 12:46:01;;;;;;;;;;;;;;;;;;4943132;28;20173;-66
2023/05/10 12:48:28;;;;;;;;;;;;;;;;;;4948647;28;20068;-66
2023/05/10 12:50:53;;;;;;;;;;;;;;;;;;4939029;28;19918;-66
2023/05/10 12:53:19;;;;;;;;;;;;;;;;;;4939890;28;20182;-66
2023/05/10 12:55:44;;;;;;;;;;;;;;;;;;4941171;28;20289;-68
2023/05/10 12:58:10;;;;;;;;;;;;;;;;;;4959006;28;19933;-66
2023/05/10 13:00:37;;;;;;;;;;;;;;;;;;4941225;28;20535;-66
2023/05/10 13:03:03;;;;;;;;;;;;;;;;;;4944332;28;20105;-65
2023/05/10 13:05:28;;;;;;;;;;;;;;;;;;4927892;28;20289;-66
2023/05/10 13:07:56;;;;;;;;;;;;;;;;;;4955171;28;19928;-66
2023/05/10 13:10:23;;;;;;;;;;;;;;;;;;4940612;28;19922;-65
2023/05/10 13:12:48;;;;;;;;;;;;;;;;;;4940158;28;19957;-67
2023/05/10 13:15:16;;;;;;;;;;;;;;;;;;4931507;28;19929;-65
2023/05/10 13:17:45;;;;;;;;;;;;;;;;;;4940140;28;19918;-65
2023/05/10 13:20:13;;;;;;;;;;;;;;;;;;4934919;28;19972;-66
2023/05/10 13:22:40;;;;;;;;;;;;;;;;;;4957975;28;20329;-66
2023/05/10 13:25:11;;;;;;;;;;;;;;;;;;4946377;28;19929;-64
2023/05/10 13:27:36;;;;;;;;;;;;;;;;;;4944165;28;19922;-66
2023/05/10 13:30:03;;;;;;;;;;;;;;;;;;4941144;28;19922;-65
2023/05/10 13:32:28;;;;;;;;;;;;;;;;;;4943642;28;19941;-66
2023/05/10 13:34:53;;;;;;;;;;;;;;;;;;4937509;28;20381;-67
2023/05/10 13:37:21;;;;;;;;;;;;;;;;;;4957400;28;19957;-65
2023/05/10 13:39:47;;;;;;;;;;;;;;;;;;4941927;28;20296;-65
2023/05/10 13:42:15;;;;;;;;;;;;;;;;;;4956379;28;19937;-65
2023/05/10 13:44:40;;;;;;;;;;;;;;;;;;4938448;28;19922;-65
2023/05/10 13:47:10;;;;;;;;;;;;;;;;;;4942993;28;19922;-66
2023/05/10 13:49:35;;;;;;;;;;;;;;;;;;4957625;28;19925;-65
2023/05/10 13:52:06;;;;;;;;;;;;;;;;;;4946861;28;19922;-66
2023/05/10 13:54:32;;;;;;;;;;;;;;;;;;4941066;28;19918;-66
2023/05/10 13:57:00;;;;;;;;;;;;;;;;;;4955841;28;19933;-66
2023/05/10 13:59:25;;;;;;;;;;;;;;;;;;4955808;28;19922;-66
2023/05/10 14:01:51;;;;;;;;;;;;;;;;;;4953552;28;19985;-67
2023/05/10 14:04:16;;;;;;;;;;;;;;;;;;4939629;28;19973;-66
2023/05/10 14:06:42;;;;;;;;;;;;;;;;;;4942560;28;20071;-66
2023/05/10 14:09:07;;;;;;;;;;;;;;;;;;4937023;28;20321;-66
2023/05/10 14:11:32;;;;;;;;;;;;;;;;;;4953876;28;19922;-65
2023/05/10 14:14:00;;;;;;;;;;;;;;;;;;4953251;28;20183;-65
2023/05/10 14:16:28;;;;;;;;;;;;;;;;;;4956332;28;19928;-66
2023/05/10 14:18:53;;;;;;;;;;;;;;;;;;4953078;28;19926;-66
2023/05/10 14:21:19;;;;;;;;;;;;;;;;;;4956270;28;19926;-67
2023/05/10 14:23:44;;;;;;;;;;;;;;;;;;4938562;28;19925;-65
2023/05/10 14:26:09;;;;;;;;;;;;;;;;;;4955008;28;19922;-65
2023/05/10 14:28:52;;;;;;;;;;;;;;;;;;4929566;28;20070;-65
2023/05/10 14:31:20;;;;;;;;;;;;;;;;;;4953637;28;19918;-65
2023/05/10 14:33:48;;;;;;;;;;;;;;;;;;4951524;28;19965;-66
2023/05/10 14:36:16;;;;;;;;;;;;;;;;;;4937333;28;19933;-65
2023/05/10 14:38:47;;;;;;;;;;;;;;;;;;4944145;28;19928;-66
2023/05/10 14:41:17;;;;;;;;;;;;;;;;;;4950739;28;20994;-67
2023/05/10 14:43:46;;;;;;;;;;;;;;;;;;4940565;28;20013;-67
2023/05/10 14:46:13;;;;;;;;;;;;;;;;;;4938111;28;19929;-68
2023/05/10 14:48:39;;;;;;;;;;;;;;;;;;4950913;28;19922;-68
2023/05/10 14:51:04;;;;;;;;;;;;;;;;;;4941864;28;19918;-67
2023/05/10 14:53:29;;;;;;;;;;;;;;;;;;4919195;28;20353;-67
2023/05/10 14:55:55;;;;;;;;;;;;;;;;;;4942886;28;20492;-69
2023/05/10 14:58:20;;;;;;;;;;;;;;;;;;4926878;28;19957;-66
2023/05/10 15:00:46;;;;;;;;;;;;;;;;;;4927683;28;19918;-66
2023/05/10 15:03:14;;;;;;;;;;;;;;;;;;4945224;28;20088;-67
2023/05/10 15:05:39;;;;;;;;;;;;;;;;;;4937101;28;19922;-66
2023/05/10 15:08:07;;;;;;;;;;;;;;;;;;4955718;28;19929;-66
2023/05/10 15:10:36;;;;;;;;;;;;;;;;;;4954501;28;19922;-67
2023/05/10 15:13:04;;;;;;;;;;;;;;;;;;4938084;28;19942;-66
2023/05/10 15:15:29;;;;;;;;;;;;;;;;;;4957236;28;19925;-66
2023/05/10 15:17:54;;;;;;;;;;;;;;;;;;4942385;28;20012;-66
2023/05/10 15:20:20;;;;;;;;;;;;;;;;;;4931407;28;19918;-66
2023/05/10 15:22:45;;;;;;;;;;;;;;;;;;4959006;28;19933;-66
2023/05/10 15:25:10;;;;;;;;;;;;;;;;;;4948765;28;19918;-66
2023/05/10 15:27:38;;;;;;;;;;;;;;;;;;4958673;28;20112;-66
2023/05/10 15:30:06;;;;;;;;;;;;;;;;;;4959037;28;19926;-66
2023/05/10 15:32:37;;;;;;;;;;;;;;;;;;4942408;28;19932;-65
2023/05/10 15:35:04;;;;;;;;;;;;;;;;;;4953190;28;19944;-66
2023/05/10 15:37:32;;;;;;;;;;;;;;;;;;4946771;28;19918;-65
2023/05/10 15:40:03;;;;;;;;;;;;;;;;;;4958274;28;19959;-66
2023/05/10 15:42:31;;;;;;;;;;;;;;;;;;4942884;28;20304;-67
2023/05/10 15:44:57;;;;;;;;;;;;;;;;;;4941336;28;19918;-66
2023/05/10 15:47:25;;;;;;;;;;;;;;;;;;4942212;28;19922;-66
2023/05/10 15:49:50;;;;;;;;;;;;;;;;;;4936076;28;20025;-66
2023/05/10 15:52:16;;;;;;;;;;;;;;;;;;4949316;28;19922;-67
2023/05/10 15:54:41;;;;;;;;;;;;;;;;;;4946462;28;19968;-66
2023/05/10 15:57:09;;;;;;;;;;;;;;;;;;4942533;28;19923;-66
2023/05/10 15:59:34;;;;;;;;;;;;;;;;;;4944304;28;19978;-65
2023/05/10 16:02:02;;;;;;;;;;;;;;;;;;4928278;28;19925;-67
2023/05/10 16:04:28;;;;;;;;;;;;;;;;;;4947971;28;20005;-66
2023/05/10 16:06:56;;;;;;;;;;;;;;;;;;4939927;28;19921;-66
2023/05/10 16:09:21;;;;;;;;;;;;;;;;;;4929916;28;19918;-66
2023/05/10 16:11:46;;;;;;;;;;;;;;;;;;4944488;28;21874;-67
2023/05/10 16:14:12;;;;;;;;;;;;;;;;;;4939993;28;19923;-67
2023/05/10 16:16:40;;;;;;;;;;;;;;;;;;4928398;28;19925;-66
2023/05/10 16:19:08;;;;;;;;;;;;;;;;;;4931064;28;19922;-65
2023/05/10 16:21:33;;;;;;;;;;;;;;;;;;4974583;28;20011;-67
2023/05/10 16:24:03;;;;;;;;;;;;;;;;;;4976262;28;19922;-66
2023/05/10 16:26:28;;;;;;;;;;;;;;;;;;4946925;28;20878;-66
2023/05/10 16:28:54;;;;;;;;;;;;;;;;;;4945410;28;19993;-66
2023/05/10 16:31:19;;;;;;;;;;;;;;;;;;4977684;28;19949;-66
2023/05/10 16:33:47;;;;;;;;;;;;;;;;;;4957748;28;19929;-65
2023/05/10 16:36:15;;;;;;;;;;;;;;;;;;4961395;28;19960;-67
2023/05/10 16:38:40;;;;;;;;;;;;;;;;;;4949508;28;19922;-66
2023/05/10 16:41:31;;;;;;;;;;;;;;;;;;4948986;28;19937;-64